sensor_id;sensor_type;location;lat;lon;timestamp;P1;durP1;ratioP1;P2;durP2;ratioP2
44440;SDS011;30146;52.268;20.944;2023-08-06T00:00:51;24.00;;;13.20;;
44440;SDS011;30146;52.268;20.944;2023-08-06T00:03:23;26.90;;;13.60;;
44440;SDS011;30146;52.268;20.944;2023-08-06T00:05:54;25.30;;;12.40;;
44440;SDS011;30146;52.268;20.944;2023-08-06T00:08:26;26.80;;;14.10;;
44440;SDS011;30146;52.268;20.944;2023-08-06T00:11:00;25.30;;;14.40;;
44440;SDS011;30146;52.268;20.944;2023-08-06T00:13:31;24.60;;;13.30;;
44440;SDS011;30146;52.268;20.944;2023-08-06T00:16:09;22.50;;;13.10;;
44440;SDS011;30146;52.268;20.944;2023-08-06T00:18:41;26.80;;;14.50;;
44440;SDS011;30146;52.268;20.944;2023-08-06T00:21:13;35.60;;;15.20;;
44440;SDS011;30146;52.268;20.944;2023-08-06T00:23:43;30.90;;;14.60;;
44440;SDS011;30146;52.268;20.944;2023-08-06T00:26:15;28.00;;;15.40;;
44440;SDS011;30146;52.268;20.944;2023-08-06T00:28:47;26.90;;;13.90;;
44440;SDS011;30146;52.268;20.944;2023-08-06T00:31:21;30.00;;;14.60;;
44440;SDS011;30146;52.268;20.944;2023-08-06T00:33:53;24.50;;;14.10;;
44440;SDS011;30146;52.268;20.944;2023-08-06T00:36:24;29.40;;;14.50;;
44440;SDS011;30146;52.268;20.944;2023-08-06T00:38:55;22.50;;;12.60;;
44440;SDS011;30146;52.268;20.944;2023-08-06T00:41:26;15.00;;;10.90;;
44440;SDS011;30146;52.268;20.944;2023-08-06T00:43:57;18.60;;;11.80;;
44440;SDS011;30146;52.268;20.944;2023-08-06T00:46:28;20.60;;;12.20;;
44440;SDS011;30146;52.268;20.944;2023-08-06T00:49:00;19.50;;;12.10;;
44440;SDS011;30146;52.268;20.944;2023-08-06T00:51:32;14.70;;;11.10;;
44440;SDS011;30146;52.268;20.944;2023-08-06T00:54:04;15.60;;;11.10;;
44440;SDS011;30146;52.268;20.944;2023-08-06T00:56:35;14.70;;;11.00;;
44440;SDS011;30146;52.268;20.944;2023-08-06T00:59:08;16.20;;;10.00;;
44440;SDS011;30146;52.268;20.944;2023-08-06T01:01:40;17.40;;;11.90;;
44440;SDS011;30146;52.268;20.944;2023-08-06T01:04:11;14.90;;;11.50;;
44440;SDS011;30146;52.268;20.944;2023-08-06T01:06:43;14.30;;;11.50;;
44440;SDS011;30146;52.268;20.944;2023-08-06T01:11:57;14.10;;;9.70;;
44440;SDS011;30146;52.268;20.944;2023-08-06T01:14:37;19.20;;;11.10;;
44440;SDS011;30146;52.268;20.944;2023-08-06T01:17:15;12.90;;;10.50;;
44440;SDS011;30146;52.268;20.944;2023-08-06T01:19:46;17.50;;;11.30;;
44440;SDS011;30146;52.268;20.944;2023-08-06T01:22:17;15.80;;;10.30;;
44440;SDS011;30146;52.268;20.944;2023-08-06T01:24:49;11.60;;;9.50;;
44440;SDS011;30146;52.268;20.944;2023-08-06T01:27:23;12.70;;;9.80;;
44440;SDS011;30146;52.268;20.944;2023-08-06T01:30:02;13.20;;;9.60;;
44440;SDS011;30146;52.268;20.944;2023-08-06T01:32:39;12.40;;;10.00;;
44440;SDS011;30146;52.268;20.944;2023-08-06T01:35:14;16.30;;;9.90;;
44440;SDS011;30146;52.268;20.944;2023-08-06T01:37:48;12.80;;;10.00;;
44440;SDS011;30146;52.268;20.944;2023-08-06T01:40:20;13.00;;;9.40;;
44440;SDS011;30146;52.268;20.944;2023-08-06T01:42:51;11.30;;;8.70;;
44440;SDS011;30146;52.268;20.944;2023-08-06T01:45:23;16.20;;;9.90;;
44440;SDS011;30146;52.268;20.944;2023-08-06T01:47:54;10.70;;;8.80;;
44440;SDS011;30146;52.268;20.944;2023-08-06T01:50:26;13.60;;;9.10;;
44440;SDS011;30146;52.268;20.944;2023-08-06T01:52:58;13.40;;;9.20;;
44440;SDS011;30146;52.268;20.944;2023-08-06T01:55:30;12.20;;;8.70;;
44440;SDS011;30146;52.268;20.944;2023-08-06T01:58:01;9.80;;;8.20;;
44440;SDS011;30146;52.268;20.944;2023-08-06T02:00:32;10.90;;;9.30;;
44440;SDS011;30146;52.268;20.944;2023-08-06T02:03:03;10.00;;;8.30;;
44440;SDS011;30146;52.268;20.944;2023-08-06T02:05:34;9.80;;;8.30;;
44440;SDS011;30146;52.268;20.944;2023-08-06T02:08:07;11.80;;;8.30;;
44440;SDS011;30146;52.268;20.944;2023-08-06T02:10:38;9.40;;;7.80;;
44440;SDS011;30146;52.268;20.944;2023-08-06T02:13:09;10.00;;;7.80;;
44440;SDS011;30146;52.268;20.944;2023-08-06T02:15:43;12.50;;;7.90;;
44440;SDS011;30146;52.268;20.944;2023-08-06T02:18:16;10.40;;;7.80;;
44440;SDS011;30146;52.268;20.944;2023-08-06T02:20:55;11.00;;;8.60;;
44440;SDS011;30146;52.268;20.944;2023-08-06T02:23:27;12.30;;;7.80;;
44440;SDS011;30146;52.268;20.944;2023-08-06T02:25:59;8.40;;;7.30;;
44440;SDS011;30146;52.268;20.944;2023-08-06T02:28:31;8.90;;;7.40;;
44440;SDS011;30146;52.268;20.944;2023-08-06T02:31:02;10.10;;;8.70;;
44440;SDS011;30146;52.268;20.944;2023-08-06T02:33:36;11.50;;;8.00;;
44440;SDS011;30146;52.268;20.944;2023-08-06T02:36:07;9.50;;;8.50;;
44440;SDS011;30146;52.268;20.944;2023-08-06T02:38:38;12.50;;;7.70;;
44440;SDS011;30146;52.268;20.944;2023-08-06T02:41:09;13.90;;;8.00;;
44440;SDS011;30146;52.268;20.944;2023-08-06T02:43:40;11.80;;;8.00;;
44440;SDS011;30146;52.268;20.944;2023-08-06T02:46:11;11.90;;;9.20;;
44440;SDS011;30146;52.268;20.944;2023-08-06T02:48:42;10.40;;;8.40;;
44440;SDS011;30146;52.268;20.944;2023-08-06T02:51:14;12.20;;;9.10;;
44440;SDS011;30146;52.268;20.944;2023-08-06T02:53:45;13.40;;;8.50;;
44440;SDS011;30146;52.268;20.944;2023-08-06T02:56:17;14.90;;;10.00;;
44440;SDS011;30146;52.268;20.944;2023-08-06T02:58:58;11.40;;;8.70;;
44440;SDS011;30146;52.268;20.944;2023-08-06T03:01:46;12.60;;;9.50;;
44440;SDS011;30146;52.268;20.944;2023-08-06T03:04:23;13.30;;;8.90;;
44440;SDS011;30146;52.268;20.944;2023-08-06T03:06:54;12.20;;;8.80;;
44440;SDS011;30146;52.268;20.944;2023-08-06T03:09:28;14.10;;;9.30;;
44440;SDS011;30146;52.268;20.944;2023-08-06T03:11:59;11.80;;;8.30;;
44440;SDS011;30146;52.268;20.944;2023-08-06T03:14:30;17.60;;;10.10;;
44440;SDS011;30146;52.268;20.944;2023-08-06T03:17:02;13.40;;;8.70;;
44440;SDS011;30146;52.268;20.944;2023-08-06T03:19:34;12.10;;;9.60;;
44440;SDS011;30146;52.268;20.944;2023-08-06T03:22:06;19.10;;;11.40;;
44440;SDS011;30146;52.268;20.944;2023-08-06T03:24:38;15.20;;;9.40;;
44440;SDS011;30146;52.268;20.944;2023-08-06T03:27:09;14.60;;;11.00;;
44440;SDS011;30146;52.268;20.944;2023-08-06T03:29:42;15.00;;;10.30;;
44440;SDS011;30146;52.268;20.944;2023-08-06T03:32:13;14.30;;;10.60;;
44440;SDS011;30146;52.268;20.944;2023-08-06T03:34:46;14.90;;;10.90;;
44440;SDS011;30146;52.268;20.944;2023-08-06T03:37:19;13.50;;;10.20;;
44440;SDS011;30146;52.268;20.944;2023-08-06T03:39:51;14.30;;;10.10;;
44440;SDS011;30146;52.268;20.944;2023-08-06T03:42:22;15.10;;;11.20;;
44440;SDS011;30146;52.268;20.944;2023-08-06T03:44:53;20.90;;;13.10;;
44440;SDS011;30146;52.268;20.944;2023-08-06T03:47:24;16.70;;;11.70;;
44440;SDS011;30146;52.268;20.944;2023-08-06T03:49:55;19.30;;;12.50;;
44440;SDS011;30146;52.268;20.944;2023-08-06T03:52:26;17.70;;;12.80;;
44440;SDS011;30146;52.268;20.944;2023-08-06T03:54:57;17.00;;;12.10;;
44440;SDS011;30146;52.268;20.944;2023-08-06T03:57:28;25.30;;;13.00;;
44440;SDS011;30146;52.268;20.944;2023-08-06T04:00:00;20.30;;;13.60;;
44440;SDS011;30146;52.268;20.944;2023-08-06T04:02:41;18.30;;;14.10;;
44440;SDS011;30146;52.268;20.944;2023-08-06T04:05:13;23.80;;;14.90;;
44440;SDS011;30146;52.268;20.944;2023-08-06T04:07:45;20.70;;;14.40;;
44440;SDS011;30146;52.268;20.944;2023-08-06T04:10:16;21.10;;;14.20;;
44440;SDS011;30146;52.268;20.944;2023-08-06T04:12:47;18.40;;;13.60;;
44440;SDS011;30146;52.268;20.944;2023-08-06T04:15:18;20.10;;;14.90;;
44440;SDS011;30146;52.268;20.944;2023-08-06T04:17:49;22.60;;;15.20;;
44440;SDS011;30146;52.268;20.944;2023-08-06T04:20:20;20.50;;;15.80;;
44440;SDS011;30146;52.268;20.944;2023-08-06T04:22:51;19.90;;;14.10;;
44440;SDS011;30146;52.268;20.944;2023-08-06T04:25:23;24.00;;;15.50;;
44440;SDS011;30146;52.268;20.944;2023-08-06T04:27:54;22.00;;;16.60;;
44440;SDS011;30146;52.268;20.944;2023-08-06T04:30:25;23.30;;;17.30;;
44440;SDS011;30146;52.268;20.944;2023-08-06T04:32:57;24.10;;;17.10;;
44440;SDS011;30146;52.268;20.944;2023-08-06T04:35:29;21.90;;;17.30;;
44440;SDS011;30146;52.268;20.944;2023-08-06T04:37:59;23.30;;;18.70;;
44440;SDS011;30146;52.268;20.944;2023-08-06T04:40:33;20.20;;;15.90;;
44440;SDS011;30146;52.268;20.944;2023-08-06T04:43:04;20.20;;;15.70;;
44440;SDS011;30146;52.268;20.944;2023-08-06T04:45:36;24.90;;;18.30;;
44440;SDS011;30146;52.268;20.944;2023-08-06T04:48:07;23.90;;;17.10;;
44440;SDS011;30146;52.268;20.944;2023-08-06T04:50:38;26.50;;;19.20;;
44440;SDS011;30146;52.268;20.944;2023-08-06T04:53:11;24.90;;;18.70;;
44440;SDS011;30146;52.268;20.944;2023-08-06T04:55:42;20.90;;;15.60;;
44440;SDS011;30146;52.268;20.944;2023-08-06T04:58:14;24.90;;;18.90;;
44440;SDS011;30146;52.268;20.944;2023-08-06T05:00:45;24.80;;;18.30;;
44440;SDS011;30146;52.268;20.944;2023-08-06T05:03:16;24.80;;;19.40;;
44440;SDS011;30146;52.268;20.944;2023-08-06T05:05:47;28.70;;;18.60;;
44440;SDS011;30146;52.268;20.944;2023-08-06T05:08:18;21.40;;;16.80;;
44440;SDS011;30146;52.268;20.944;2023-08-06T05:10:49;26.10;;;17.80;;
44440;SDS011;30146;52.268;20.944;2023-08-06T05:13:20;25.20;;;18.30;;
44440;SDS011;30146;52.268;20.944;2023-08-06T05:15:51;24.90;;;17.00;;
44440;SDS011;30146;52.268;20.944;2023-08-06T05:18:24;18.30;;;15.20;;
44440;SDS011;30146;52.268;20.944;2023-08-06T05:20:55;20.90;;;16.70;;
44440;SDS011;30146;52.268;20.944;2023-08-06T05:23:26;17.40;;;15.00;;
44440;SDS011;30146;52.268;20.944;2023-08-06T05:25:57;29.50;;;15.90;;
44440;SDS011;30146;52.268;20.944;2023-08-06T05:28:28;20.60;;;16.00;;
44440;SDS011;30146;52.268;20.944;2023-08-06T05:30:59;25.00;;;15.30;;
44440;SDS011;30146;52.268;20.944;2023-08-06T05:36:03;17.10;;;13.30;;
44440;SDS011;30146;52.268;20.944;2023-08-06T05:38:34;16.10;;;13.20;;
44440;SDS011;30146;52.268;20.944;2023-08-06T05:41:05;19.20;;;13.10;;
44440;SDS011;30146;52.268;20.944;2023-08-06T05:43:36;16.60;;;12.70;;
44440;SDS011;30146;52.268;20.944;2023-08-06T05:46:07;19.60;;;13.30;;
44440;SDS011;30146;52.268;20.944;2023-08-06T05:48:38;16.20;;;12.30;;
44440;SDS011;30146;52.268;20.944;2023-08-06T05:51:09;16.20;;;11.40;;
44440;SDS011;30146;52.268;20.944;2023-08-06T05:53:41;12.70;;;10.50;;
44440;SDS011;30146;52.268;20.944;2023-08-06T05:56:13;19.40;;;11.10;;
44440;SDS011;30146;52.268;20.944;2023-08-06T05:58:44;12.70;;;10.30;;
44440;SDS011;30146;52.268;20.944;2023-08-06T06:01:17;17.10;;;10.10;;
44440;SDS011;30146;52.268;20.944;2023-08-06T06:03:48;12.00;;;9.70;;
44440;SDS011;30146;52.268;20.944;2023-08-06T06:06:24;13.60;;;9.00;;
44440;SDS011;30146;52.268;20.944;2023-08-06T06:08:55;17.00;;;9.20;;
44440;SDS011;30146;52.268;20.944;2023-08-06T06:11:27;10.40;;;9.20;;
44440;SDS011;30146;52.268;20.944;2023-08-06T06:13:59;10.30;;;8.80;;
44440;SDS011;30146;52.268;20.944;2023-08-06T06:16:30;9.40;;;8.40;;
44440;SDS011;30146;52.268;20.944;2023-08-06T06:19:02;18.00;;;8.90;;
44440;SDS011;30146;52.268;20.944;2023-08-06T06:21:33;17.90;;;9.10;;
44440;SDS011;30146;52.268;20.944;2023-08-06T06:24:06;12.80;;;8.50;;
44440;SDS011;30146;52.268;20.944;2023-08-06T06:26:37;16.70;;;8.20;;
44440;SDS011;30146;52.268;20.944;2023-08-06T06:29:08;13.10;;;8.40;;
44440;SDS011;30146;52.268;20.944;2023-08-06T06:31:39;9.60;;;7.50;;
44440;SDS011;30146;52.268;20.944;2023-08-06T06:34:11;17.60;;;8.30;;
44440;SDS011;30146;52.268;20.944;2023-08-06T06:36:42;9.20;;;7.10;;
44440;SDS011;30146;52.268;20.944;2023-08-06T06:39:13;9.90;;;7.30;;
44440;SDS011;30146;52.268;20.944;2023-08-06T06:41:44;14.60;;;7.40;;
44440;SDS011;30146;52.268;20.944;2023-08-06T06:44:22;12.90;;;7.20;;
44440;SDS011;30146;52.268;20.944;2023-08-06T06:46:57;13.20;;;6.90;;
44440;SDS011;30146;52.268;20.944;2023-08-06T06:49:28;11.60;;;7.00;;
44440;SDS011;30146;52.268;20.944;2023-08-06T06:51:59;8.80;;;6.60;;
44440;SDS011;30146;52.268;20.944;2023-08-06T06:54:31;17.50;;;7.60;;
44440;SDS011;30146;52.268;20.944;2023-08-06T06:57:02;9.70;;;6.30;;
44440;SDS011;30146;52.268;20.944;2023-08-06T06:59:34;10.20;;;6.40;;
44440;SDS011;30146;52.268;20.944;2023-08-06T07:02:06;15.20;;;6.90;;
44440;SDS011;30146;52.268;20.944;2023-08-06T07:04:38;12.90;;;6.70;;
44440;SDS011;30146;52.268;20.944;2023-08-06T07:07:10;16.70;;;6.60;;
44440;SDS011;30146;52.268;20.944;2023-08-06T07:09:40;16.30;;;6.80;;
44440;SDS011;30146;52.268;20.944;2023-08-06T07:12:11;10.20;;;6.70;;
44440;SDS011;30146;52.268;20.944;2023-08-06T07:14:44;10.40;;;6.50;;
44440;SDS011;30146;52.268;20.944;2023-08-06T07:17:16;14.80;;;6.80;;
44440;SDS011;30146;52.268;20.944;2023-08-06T07:19:48;12.90;;;7.30;;
44440;SDS011;30146;52.268;20.944;2023-08-06T07:22:19;8.40;;;7.00;;
44440;SDS011;30146;52.268;20.944;2023-08-06T07:24:50;13.80;;;7.90;;
44440;SDS011;30146;52.268;20.944;2023-08-06T07:27:21;15.40;;;7.60;;
44440;SDS011;30146;52.268;20.944;2023-08-06T07:29:53;12.50;;;7.50;;
44440;SDS011;30146;52.268;20.944;2023-08-06T07:32:24;9.80;;;7.20;;
44440;SDS011;30146;52.268;20.944;2023-08-06T07:34:56;12.00;;;7.70;;
44440;SDS011;30146;52.268;20.944;2023-08-06T07:37:28;10.50;;;7.50;;
44440;SDS011;30146;52.268;20.944;2023-08-06T07:40:00;9.90;;;6.80;;
44440;SDS011;30146;52.268;20.944;2023-08-06T07:42:32;11.20;;;7.70;;
44440;SDS011;30146;52.268;20.944;2023-08-06T07:45:04;11.70;;;8.00;;
44440;SDS011;30146;52.268;20.944;2023-08-06T07:47:39;15.90;;;7.50;;
44440;SDS011;30146;52.268;20.944;2023-08-06T07:50:12;15.60;;;7.60;;
44440;SDS011;30146;52.268;20.944;2023-08-06T07:52:43;12.80;;;7.60;;
44440;SDS011;30146;52.268;20.944;2023-08-06T07:55:16;11.40;;;8.40;;
44440;SDS011;30146;52.268;20.944;2023-08-06T07:57:47;20.00;;;8.40;;
44440;SDS011;30146;52.268;20.944;2023-08-06T08:00:18;13.40;;;7.80;;
44440;SDS011;30146;52.268;20.944;2023-08-06T08:02:50;15.60;;;8.40;;
44440;SDS011;30146;52.268;20.944;2023-08-06T08:05:24;13.80;;;8.30;;
44440;SDS011;30146;52.268;20.944;2023-08-06T08:07:55;12.30;;;7.60;;
44440;SDS011;30146;52.268;20.944;2023-08-06T08:10:26;20.90;;;7.90;;
44440;SDS011;30146;52.268;20.944;2023-08-06T08:12:59;13.70;;;8.50;;
44440;SDS011;30146;52.268;20.944;2023-08-06T08:15:33;12.30;;;7.60;;
44440;SDS011;30146;52.268;20.944;2023-08-06T08:18:04;27.60;;;8.50;;
44440;SDS011;30146;52.268;20.944;2023-08-06T08:20:36;14.20;;;7.90;;
44440;SDS011;30146;52.268;20.944;2023-08-06T08:23:06;10.70;;;7.30;;
44440;SDS011;30146;52.268;20.944;2023-08-06T08:25:37;13.30;;;8.70;;
44440;SDS011;30146;52.268;20.944;2023-08-06T08:28:08;13.40;;;7.30;;
44440;SDS011;30146;52.268;20.944;2023-08-06T08:30:41;17.70;;;8.10;;
44440;SDS011;30146;52.268;20.944;2023-08-06T08:33:13;13.20;;;7.70;;
44440;SDS011;30146;52.268;20.944;2023-08-06T08:35:52;16.60;;;8.30;;
44440;SDS011;30146;52.268;20.944;2023-08-06T08:38:25;11.10;;;7.90;;
44440;SDS011;30146;52.268;20.944;2023-08-06T08:40:56;12.30;;;7.90;;
44440;SDS011;30146;52.268;20.944;2023-08-06T08:43:27;11.30;;;7.20;;
44440;SDS011;30146;52.268;20.944;2023-08-06T08:46:00;13.50;;;7.40;;
44440;SDS011;30146;52.268;20.944;2023-08-06T08:48:36;8.90;;;7.70;;
44440;SDS011;30146;52.268;20.944;2023-08-06T08:51:11;12.60;;;8.10;;
44440;SDS011;30146;52.268;20.944;2023-08-06T08:53:42;14.70;;;7.90;;
44440;SDS011;30146;52.268;20.944;2023-08-06T08:58:47;14.30;;;7.90;;
44440;SDS011;30146;52.268;20.944;2023-08-06T09:01:20;11.10;;;7.80;;
44440;SDS011;30146;52.268;20.944;2023-08-06T09:03:51;11.00;;;7.30;;
44440;SDS011;30146;52.268;20.944;2023-08-06T09:06:25;14.20;;;7.70;;
44440;SDS011;30146;52.268;20.944;2023-08-06T09:09:00;13.20;;;7.20;;
44440;SDS011;30146;52.268;20.944;2023-08-06T09:11:37;11.60;;;7.30;;
44440;SDS011;30146;52.268;20.944;2023-08-06T09:14:12;11.40;;;7.30;;
44440;SDS011;30146;52.268;20.944;2023-08-06T09:16:44;14.90;;;7.00;;
44440;SDS011;30146;52.268;20.944;2023-08-06T09:19:16;13.00;;;7.30;;
44440;SDS011;30146;52.268;20.944;2023-08-06T09:21:47;12.50;;;6.70;;
44440;SDS011;30146;52.268;20.944;2023-08-06T09:24:21;11.30;;;7.30;;
44440;SDS011;30146;52.268;20.944;2023-08-06T09:26:54;13.30;;;6.80;;
44440;SDS011;30146;52.268;20.944;2023-08-06T09:29:26;15.50;;;7.10;;
44440;SDS011;30146;52.268;20.944;2023-08-06T09:32:02;11.80;;;6.80;;
44440;SDS011;30146;52.268;20.944;2023-08-06T09:34:33;7.60;;;6.40;;
44440;SDS011;30146;52.268;20.944;2023-08-06T09:37:08;12.20;;;7.40;;
44440;SDS011;30146;52.268;20.944;2023-08-06T09:39:40;12.40;;;7.00;;
44440;SDS011;30146;52.268;20.944;2023-08-06T09:42:14;15.10;;;7.70;;
44440;SDS011;30146;52.268;20.944;2023-08-06T09:44:45;15.50;;;7.30;;
44440;SDS011;30146;52.268;20.944;2023-08-06T09:47:16;12.70;;;6.90;;
44440;SDS011;30146;52.268;20.944;2023-08-06T09:49:52;12.60;;;7.00;;
44440;SDS011;30146;52.268;20.944;2023-08-06T09:52:25;10.30;;;6.60;;
44440;SDS011;30146;52.268;20.944;2023-08-06T09:54:58;13.90;;;7.30;;
44440;SDS011;30146;52.268;20.944;2023-08-06T09:57:32;15.40;;;7.10;;
44440;SDS011;30146;52.268;20.944;2023-08-06T10:00:04;18.00;;;7.50;;
44440;SDS011;30146;52.268;20.944;2023-08-06T10:02:41;13.50;;;6.80;;
44440;SDS011;30146;52.268;20.944;2023-08-06T10:05:17;15.60;;;6.80;;
44440;SDS011;30146;52.268;20.944;2023-08-06T10:07:50;11.60;;;6.80;;
44440;SDS011;30146;52.268;20.944;2023-08-06T10:10:24;10.20;;;7.70;;
44440;SDS011;30146;52.268;20.944;2023-08-06T10:12:57;10.40;;;6.40;;
44440;SDS011;30146;52.268;20.944;2023-08-06T10:15:31;13.80;;;6.70;;
44440;SDS011;30146;52.268;20.944;2023-08-06T10:18:04;8.10;;;5.80;;
44440;SDS011;30146;52.268;20.944;2023-08-06T10:20:39;10.90;;;6.80;;
44440;SDS011;30146;52.268;20.944;2023-08-06T10:23:11;13.80;;;6.60;;
44440;SDS011;30146;52.268;20.944;2023-08-06T10:25:42;13.70;;;6.70;;
44440;SDS011;30146;52.268;20.944;2023-08-06T10:28:24;11.90;;;6.50;;
44440;SDS011;30146;52.268;20.944;2023-08-06T10:34:21;9.60;;;5.60;;
44440;SDS011;30146;52.268;20.944;2023-08-06T10:36:56;7.30;;;6.00;;
44440;SDS011;30146;52.268;20.944;2023-08-06T10:39:28;8.20;;;5.70;;
44440;SDS011;30146;52.268;20.944;2023-08-06T10:45:15;11.00;;;5.40;;
44440;SDS011;30146;52.268;20.944;2023-08-06T10:48:29;9.60;;;5.90;;
44440;SDS011;30146;52.268;20.944;2023-08-06T10:51:28;17.80;;;8.40;;
44440;SDS011;30146;52.268;20.944;2023-08-06T10:54:00;11.00;;;5.80;;
44440;SDS011;30146;52.268;20.944;2023-08-06T10:56:31;8.60;;;5.80;;
44440;SDS011;30146;52.268;20.944;2023-08-06T10:59:14;14.80;;;5.50;;
44440;SDS011;30146;52.268;20.944;2023-08-06T11:01:48;8.50;;;5.10;;
44440;SDS011;30146;52.268;20.944;2023-08-06T11:04:45;6.00;;;5.30;;
44440;SDS011;30146;52.268;20.944;2023-08-06T11:07:16;9.80;;;5.90;;
44440;SDS011;30146;52.268;20.944;2023-08-06T11:09:51;10.30;;;6.10;;
44440;SDS011;30146;52.268;20.944;2023-08-06T11:12:22;10.90;;;6.50;;
44440;SDS011;30146;52.268;20.944;2023-08-06T11:14:54;12.00;;;5.20;;
44440;SDS011;30146;52.268;20.944;2023-08-06T11:17:39;7.30;;;5.20;;
44440;SDS011;30146;52.268;20.944;2023-08-06T11:20:11;15.80;;;5.30;;
44440;SDS011;30146;52.268;20.944;2023-08-06T11:22:58;7.10;;;5.50;;
44440;SDS011;30146;52.268;20.944;2023-08-06T11:25:37;10.60;;;4.80;;
44440;SDS011;30146;52.268;20.944;2023-08-06T11:28:15;11.50;;;5.20;;
44440;SDS011;30146;52.268;20.944;2023-08-06T11:37:04;10.60;;;5.20;;
44440;SDS011;30146;52.268;20.944;2023-08-06T11:39:36;8.00;;;5.30;;
44440;SDS011;30146;52.268;20.944;2023-08-06T11:42:08;15.80;;;5.60;;
44440;SDS011;30146;52.268;20.944;2023-08-06T11:44:43;12.60;;;5.40;;
44440;SDS011;30146;52.268;20.944;2023-08-06T11:47:15;9.20;;;5.00;;
44440;SDS011;30146;52.268;20.944;2023-08-06T11:49:48;13.10;;;5.60;;
44440;SDS011;30146;52.268;20.944;2023-08-06T11:52:20;8.20;;;5.30;;
44440;SDS011;30146;52.268;20.944;2023-08-06T11:55:02;13.60;;;5.70;;
44440;SDS011;30146;52.268;20.944;2023-08-06T11:57:36;7.10;;;5.50;;
44440;SDS011;30146;52.268;20.944;2023-08-06T12:00:09;13.30;;;5.20;;
44440;SDS011;30146;52.268;20.944;2023-08-06T12:02:46;8.50;;;6.90;;
44440;SDS011;30146;52.268;20.944;2023-08-06T12:05:20;10.10;;;4.80;;
44440;SDS011;30146;52.268;20.944;2023-08-06T12:07:53;18.20;;;5.70;;
44440;SDS011;30146;52.268;20.944;2023-08-06T12:10:28;11.30;;;6.20;;
44440;SDS011;30146;52.268;20.944;2023-08-06T12:13:01;7.30;;;5.20;;
44440;SDS011;30146;52.268;20.944;2023-08-06T12:15:32;6.70;;;4.90;;
44440;SDS011;30146;52.268;20.944;2023-08-06T12:18:04;17.90;;;5.50;;
44440;SDS011;30146;52.268;20.944;2023-08-06T12:20:36;8.70;;;5.60;;
44440;SDS011;30146;52.268;20.944;2023-08-06T12:23:08;10.70;;;5.50;;
44440;SDS011;30146;52.268;20.944;2023-08-06T12:25:43;8.10;;;5.60;;
44440;SDS011;30146;52.268;20.944;2023-08-06T12:28:14;9.20;;;4.90;;
44440;SDS011;30146;52.268;20.944;2023-08-06T12:30:48;8.40;;;5.70;;
44440;SDS011;30146;52.268;20.944;2023-08-06T12:33:23;15.70;;;6.20;;
44440;SDS011;30146;52.268;20.944;2023-08-06T12:35:54;9.30;;;5.50;;
44440;SDS011;30146;52.268;20.944;2023-08-06T12:38:27;9.60;;;6.20;;
44440;SDS011;30146;52.268;20.944;2023-08-06T12:41:02;12.60;;;6.60;;
44440;SDS011;30146;52.268;20.944;2023-08-06T12:43:33;10.20;;;5.80;;
44440;SDS011;30146;52.268;20.944;2023-08-06T12:46:05;8.60;;;5.40;;
44440;SDS011;30146;52.268;20.944;2023-08-06T12:48:37;7.20;;;5.50;;
44440;SDS011;30146;52.268;20.944;2023-08-06T12:51:08;13.30;;;5.60;;
44440;SDS011;30146;52.268;20.944;2023-08-06T12:53:39;11.70;;;5.90;;
44440;SDS011;30146;52.268;20.944;2023-08-06T12:56:10;7.70;;;6.30;;
44440;SDS011;30146;52.268;20.944;2023-08-06T12:58:43;6.90;;;5.90;;
44440;SDS011;30146;52.268;20.944;2023-08-06T13:01:15;9.00;;;6.50;;
44440;SDS011;30146;52.268;20.944;2023-08-06T13:03:46;10.80;;;6.30;;
44440;SDS011;30146;52.268;20.944;2023-08-06T13:06:19;9.00;;;6.50;;
44440;SDS011;30146;52.268;20.944;2023-08-06T13:08:51;11.90;;;6.00;;
44440;SDS011;30146;52.268;20.944;2023-08-06T13:11:22;9.30;;;5.70;;
44440;SDS011;30146;52.268;20.944;2023-08-06T13:13:53;10.90;;;5.90;;
44440;SDS011;30146;52.268;20.944;2023-08-06T13:16:26;7.00;;;5.00;;
44440;SDS011;30146;52.268;20.944;2023-08-06T13:18:57;11.30;;;5.60;;
44440;SDS011;30146;52.268;20.944;2023-08-06T13:21:32;9.90;;;6.10;;
44440;SDS011;30146;52.268;20.944;2023-08-06T13:24:04;11.40;;;5.60;;
44440;SDS011;30146;52.268;20.944;2023-08-06T13:26:36;9.90;;;5.30;;
44440;SDS011;30146;52.268;20.944;2023-08-06T13:29:08;11.60;;;5.40;;
44440;SDS011;30146;52.268;20.944;2023-08-06T13:31:42;12.70;;;5.70;;
44440;SDS011;30146;52.268;20.944;2023-08-06T13:34:16;9.00;;;5.20;;
44440;SDS011;30146;52.268;20.944;2023-08-06T13:36:53;11.00;;;5.60;;
44440;SDS011;30146;52.268;20.944;2023-08-06T13:39:25;7.60;;;5.30;;
44440;SDS011;30146;52.268;20.944;2023-08-06T13:41:56;12.90;;;6.00;;
44440;SDS011;30146;52.268;20.944;2023-08-06T13:44:27;6.20;;;5.30;;
44440;SDS011;30146;52.268;20.944;2023-08-06T13:47:04;8.70;;;5.30;;
44440;SDS011;30146;52.268;20.944;2023-08-06T13:49:35;8.90;;;4.70;;
44440;SDS011;30146;52.268;20.944;2023-08-06T13:52:25;12.20;;;5.10;;
44440;SDS011;30146;52.268;20.944;2023-08-06T13:54:56;5.30;;;4.80;;
44440;SDS011;30146;52.268;20.944;2023-08-06T13:57:28;11.60;;;5.10;;
44440;SDS011;30146;52.268;20.944;2023-08-06T13:59:59;5.50;;;4.90;;
44440;SDS011;30146;52.268;20.944;2023-08-06T14:02:40;7.60;;;4.90;;
44440;SDS011;30146;52.268;20.944;2023-08-06T14:05:13;11.70;;;5.00;;
44440;SDS011;30146;52.268;20.944;2023-08-06T14:07:44;11.40;;;4.90;;
44440;SDS011;30146;52.268;20.944;2023-08-06T14:10:16;13.20;;;5.70;;
44440;SDS011;30146;52.268;20.944;2023-08-06T14:12:49;14.50;;;5.00;;
44440;SDS011;30146;52.268;20.944;2023-08-06T14:15:36;5.40;;;4.70;;
44440;SDS011;30146;52.268;20.944;2023-08-06T14:18:08;5.70;;;4.60;;
44440;SDS011;30146;52.268;20.944;2023-08-06T14:20:40;7.70;;;4.90;;
44440;SDS011;30146;52.268;20.944;2023-08-06T14:23:12;15.20;;;5.30;;
44440;SDS011;30146;52.268;20.944;2023-08-06T14:25:44;6.60;;;4.80;;
44440;SDS011;30146;52.268;20.944;2023-08-06T14:28:16;5.20;;;4.40;;
44440;SDS011;30146;52.268;20.944;2023-08-06T14:30:47;9.10;;;4.90;;
44440;SDS011;30146;52.268;20.944;2023-08-06T14:33:18;6.20;;;4.70;;
44440;SDS011;30146;52.268;20.944;2023-08-06T14:35:55;8.90;;;4.90;;
44440;SDS011;30146;52.268;20.944;2023-08-06T14:38:27;5.30;;;4.30;;
44440;SDS011;30146;52.268;20.944;2023-08-06T14:40:58;8.40;;;3.90;;
44440;SDS011;30146;52.268;20.944;2023-08-06T14:43:31;9.50;;;4.20;;
44440;SDS011;30146;52.268;20.944;2023-08-06T14:46:02;5.10;;;3.80;;
44440;SDS011;30146;52.268;20.944;2023-08-06T14:48:36;4.30;;;3.90;;
44440;SDS011;30146;52.268;20.944;2023-08-06T14:51:08;7.80;;;3.90;;
44440;SDS011;30146;52.268;20.944;2023-08-06T14:53:41;4.50;;;4.00;;
44440;SDS011;30146;52.268;20.944;2023-08-06T14:56:16;3.80;;;3.50;;
44440;SDS011;30146;52.268;20.944;2023-08-06T14:58:51;7.00;;;3.90;;
44440;SDS011;30146;52.268;20.944;2023-08-06T15:01:22;4.90;;;4.40;;
44440;SDS011;30146;52.268;20.944;2023-08-06T15:03:54;4.80;;;4.30;;
44440;SDS011;30146;52.268;20.944;2023-08-06T15:06:27;6.40;;;4.80;;
44440;SDS011;30146;52.268;20.944;2023-08-06T15:08:58;4.70;;;4.20;;
44440;SDS011;30146;52.268;20.944;2023-08-06T15:11:29;8.60;;;4.30;;
44440;SDS011;30146;52.268;20.944;2023-08-06T15:14:00;7.30;;;4.30;;